Millenium Air

Millenium Air Since 1998



 METAR AND TAF INFORMATION
METAR FOR UKOO
ADDS - METARS form results

(0459 UTC 18 April 2021)
Data provider http://aviationweather.gov/metar/data/
 
METAR text: UKOO 180430Z 00000MPS 6000 MIFG NSC 05/05 Q1018 R16/090060 NOSIG
Conditions at: UKOO (ODESSA/TSENTRALN, UA) observed 0430 UTC 18 April 2021
Temperature: 5.0°C (41°F)
Dewpoint: 5.0°C (41°F) [RH = 100%]
Pressure (altimeter): 30.06 inches Hg (1018.0 mb)
Winds: calm
Visibility: 4 miles ( 6 km)
Ceiling: at least 12,000 feet AGL
Clouds: sky clear below 12,000 feet AGL
Weather: MIFG  (shallow fog)

METAR text: UKOO 180425Z 00000MPS 5000 MIFG BR NSC 04/04 Q1018 R16/090060 NOSIG
Conditions at: UKOO (ODESSA/TSENTRALN, UA) observed 0425 UTC 18 April 2021
Temperature: 4.0°C (39°F)
Dewpoint: 4.0°C (39°F) [RH = 100%]
Pressure (altimeter): 30.06 inches Hg (1018.0 mb)
Winds: calm
Visibility: 3 miles ( 5 km)
Ceiling: at least 12,000 feet AGL
Clouds: sky clear below 12,000 feet AGL
Weather: MIFG BR  (shallow fog, mist)

METAR text: UKOO 180408Z 00000MPS 2600 BR NSC 04/04 Q1018 R16/090060 NOSIG
Conditions at: UKOO (ODESSA/TSENTRALN, UA) observed 0408 UTC 18 April 2021
Temperature: 4.0°C (39°F)
Dewpoint: 4.0°C (39°F) [RH = 100%]
Pressure (altimeter): 30.06 inches Hg (1018.0 mb)
Winds: calm
Visibility: 1.62 miles (2.61 km)
Ceiling: at least 12,000 feet AGL
Clouds: sky clear below 12,000 feet AGL
Weather: BR  (mist)

METAR text: UKOO 180400Z 00000MPS 4500 BR NSC 03/03 Q1018 R16/090060 NOSIG
Conditions at: UKOO (ODESSA/TSENTRALN, UA) observed 0400 UTC 18 April 2021
Temperature: 3.0°C (37°F)
Dewpoint: 3.0°C (37°F) [RH = 100%]
Pressure (altimeter): 30.06 inches Hg (1018.0 mb)
Winds: calm
Visibility: 2.80 miles (4.51 km)
Ceiling: at least 12,000 feet AGL
Clouds: sky clear below 12,000 feet AGL
Weather: BR  (mist)

Forecast for: AMD
Text: TAF AMD UKOO 180350Z 1803/1824 09003MPS 2100 BR SCT004 BKN007 SCT015CB TX13/1812Z TN03/1804Z
Forecast period: 0300 to 0600 UTC 18 April 2021
Forecast type: FROM: standard forecast or significant change
Winds: from the E (90 degrees) at 7 MPH (6 knots; 3.1 m/s)
Visibility: 1.30 miles (2.09 km)
Ceiling: 700 feet AGL
Clouds: scattered clouds at 400 feet AGL
broken clouds at 700 feet AGL
scattered clouds at 1500 feet AGL
Weather: BR  (mist)
Text: TEMPO 1803/1806 0300 FG VV002
Forecast period: 0300 to 0600 UTC 18 April 2021
Forecast type: TEMPORARY: The following changes expected for less than half the time period
Visibility: 0.19 miles (0.31 km)
Ceiling: indefinite ceiling with vertical visibility of 200 feet AGL
Clouds: obscured sky
Weather: FG  (fog)
Text: BECMG 1806/1807 6000 NSW
Forecast period: 0600 to 1600 UTC 18 April 2021
Forecast type: BECOMING: Conditions expected to become as follows by 0700 UTC 18 April 2021
Winds: from the E (90 degrees) at 7 MPH (6 knots; 3.1 m/s)
Visibility: 4 miles (6 km)
Ceiling: 700 feet AGL
Clouds: scattered clouds at 400 feet AGL
broken clouds at 700 feet AGL
scattered clouds at 1500 feet AGL
Weather: NSW  (no significant weather)
Text: BECMG 1816/1817 36003MPS 2100 BR
Forecast period: 1600 UTC 18 April 2021 to 0000 UTC 19 April 2021
Forecast type: BECOMING: Conditions expected to become as follows by 1700 UTC 18 April 2021
Winds: from the N (360 degrees) at 7 MPH (6 knots; 3.1 m/s)
Visibility: 1.30 miles (2.09 km)
Ceiling: 700 feet AGL
Clouds: scattered clouds at 400 feet AGL
broken clouds at 700 feet AGL
scattered clouds at 1500 feet AGL
Weather: BR  (mist)

 AIRPORT MAP

 RUNWAY INFORMATION
Runway 07 Runway length 1815 ft Runway width 197 ft
Runway elevation 0 ft Runway displaced threshold 0 ft Runway heading 75
Runway 25 Runway length 1815 ft Runway width 197 ft
Runway elevation 0 ft Runway displaced threshold 0 ft Runway heading 255
Runway 16 Runway length 9183 ft Runway width 184 ft
Runway elevation 172 ft Runway displaced threshold 0 ft Runway heading 163
Runway 34 Runway length 9183 ft Runway width 184 ft
Runway elevation 165 ft Runway displaced threshold 0 ft Runway heading 343
Runway 18 Runway length 2950 ft Runway width 190 ft
Runway elevation 0 ft Runway displaced threshold 0 ft Runway heading 182
Runway 36 Runway length 2950 ft Runway width 190 ft
Runway elevation 0 ft Runway displaced threshold 0 ft Runway heading 2

 AIRPORT FREQUENCIES
Type APP Name RADAR Frequency 120.9 MHZ
Type ATIS Name ATIS Frequency 124.8 MHZ
Type GND Name GND Frequency 121.8 MHZ
Type TWR Name TWR Frequency 125.5 MHZ

 AIRPORT NEAR NAVIGATION AIDS
Type VOR-DME Name Odesa Frequency 113950 KHZ